createdAt,value
2018-03-19T00:02:17.509Z,48.09
2018-03-19T00:04:43.846Z,48.12
2018-03-19T00:07:10.213Z,48.07
2018-03-19T00:09:36.542Z,48.07
2018-03-19T00:12:02.909Z,48.08
2018-03-19T00:14:29.302Z,48.08
2018-03-19T00:16:55.803Z,48.21
2018-03-19T00:19:22.138Z,48.10
2018-03-19T00:21:48.570Z,48.13
2018-03-19T00:24:14.925Z,48.10
2018-03-19T00:26:41.273Z,48.12
2018-03-19T00:29:07.693Z,48.22
2018-03-19T00:31:34.155Z,48.19
2018-03-19T00:34:00.488Z,48.20
2018-03-19T00:36:26.862Z,48.23
2018-03-19T00:38:53.251Z,48.21
2018-03-19T00:41:19.587Z,48.14
2018-03-19T00:43:45.952Z,48.16
2018-03-19T00:46:12.291Z,48.10
2018-03-19T00:48:38.667Z,48.13
2018-03-19T00:51:05.033Z,48.13
2018-03-19T00:53:31.370Z,48.03
2018-03-19T00:55:57.760Z,48.37
2018-03-19T00:58:24.085Z,48.24
2018-03-19T01:00:50.482Z,48.12
2018-03-19T01:03:16.851Z,48.24
2018-03-19T01:05:43.226Z,48.21
2018-03-19T01:08:09.555Z,48.07
2018-03-19T01:10:35.935Z,48.21
2018-03-19T01:13:02.277Z,48.15
2018-03-19T01:15:28.609Z,48.16
2018-03-19T01:17:54.978Z,48.24
2018-03-19T01:20:21.346Z,48.12
2018-03-19T01:22:47.733Z,48.12
2018-03-19T01:25:14.094Z,48.21
2018-03-19T01:27:40.479Z,48.12
2018-03-19T01:30:06.879Z,48.08
2018-03-19T01:32:33.253Z,48.25
2018-03-19T01:34:59.585Z,48.17
2018-03-19T01:37:25.939Z,48.14
2018-03-19T01:39:52.280Z,48.20
2018-03-19T01:42:18.660Z,48.24
2018-03-19T01:44:45.034Z,48.23
2018-03-19T01:47:11.423Z,48.12
2018-03-19T01:49:37.755Z,48.27
2018-03-19T01:52:04.148Z,48.28
2018-03-19T01:54:30.516Z,48.22
2018-03-19T01:56:56.867Z,48.36
2018-03-19T01:59:23.249Z,48.23
2018-03-19T02:01:49.583Z,48.16
2018-03-19T02:06:57.329Z,48.41
2018-03-19T02:09:23.737Z,48.44
2018-03-19T02:11:50.143Z,48.55
2018-03-19T02:14:16.509Z,48.61
2018-03-19T02:16:42.875Z,48.78
2018-03-19T02:19:09.281Z,48.72
2018-03-19T02:21:35.672Z,48.63
2018-03-19T02:24:02.098Z,48.55
2018-03-19T02:26:28.496Z,48.57
2018-03-19T02:28:54.909Z,48.51
2018-03-19T02:31:21.258Z,48.54
2018-03-19T02:33:47.630Z,48.55
2018-03-19T02:36:13.994Z,48.44
2018-03-19T02:38:40.446Z,48.50
2018-03-19T02:41:06.847Z,48.48
2018-03-19T02:43:33.201Z,48.50
2018-03-19T02:45:59.622Z,48.66
2018-03-19T02:48:25.965Z,48.56
2018-03-19T02:50:52.352Z,48.81
2018-03-19T02:53:18.682Z,48.68
2018-03-19T02:55:45.085Z,48.71
2018-03-19T02:58:11.431Z,48.76
2018-03-19T03:00:37.802Z,48.76
2018-03-19T03:03:04.147Z,48.82
2018-03-19T03:05:30.584Z,48.91
2018-03-19T03:07:56.967Z,48.76
2018-03-19T03:10:23.432Z,48.89
2018-03-19T03:12:49.943Z,48.96
2018-03-19T03:15:16.274Z,48.95
2018-03-19T03:17:42.627Z,48.81
2018-03-19T03:20:08.983Z,48.91
2018-03-19T03:22:35.443Z,49.11
2018-03-19T03:25:01.864Z,49.39
2018-03-19T03:27:28.205Z,49.13
2018-03-19T03:29:54.542Z,49.30
2018-03-19T03:32:20.900Z,49.38
2018-03-19T03:34:47.235Z,49.35
2018-03-19T03:37:13.598Z,49.21
2018-03-19T03:39:39.933Z,49.36
2018-03-19T03:42:06.350Z,49.40
2018-03-19T03:44:32.730Z,49.60
2018-03-19T03:46:59.106Z,49.63
2018-03-19T03:49:25.470Z,49.71
2018-03-19T03:51:51.856Z,49.82
2018-03-19T03:54:18.402Z,49.81
2018-03-19T03:56:44.754Z,49.73
2018-03-19T03:59:11.141Z,49.56
2018-03-19T04:01:37.494Z,50.07
2018-03-19T04:04:03.889Z,50.06
2018-03-19T04:06:30.257Z,50.02
2018-03-19T04:08:56.627Z,49.99
2018-03-19T04:11:23.071Z,49.94
2018-03-19T04:13:49.437Z,50.13
2018-03-19T04:16:15.808Z,49.96
2018-03-19T04:18:42.145Z,49.89
2018-03-19T04:21:08.477Z,50.08
2018-03-19T04:23:34.806Z,50.27
2018-03-19T04:26:01.187Z,50.22
2018-03-19T04:28:27.630Z,49.95
2018-03-19T04:30:54.109Z,50.12
2018-03-19T04:33:20.472Z,50.13
2018-03-19T04:35:46.817Z,49.80
2018-03-19T04:38:13.225Z,50.00
2018-03-19T04:40:39.560Z,49.99
2018-03-19T04:45:38.465Z,50.05
2018-03-19T04:48:04.833Z,50.14
2018-03-19T04:50:31.279Z,50.14
2018-03-19T04:52:57.640Z,50.23
2018-03-19T04:55:24.144Z,50.36
2018-03-19T04:57:50.517Z,50.29
2018-03-19T05:00:16.931Z,50.18
2018-03-19T05:02:43.253Z,50.47
2018-03-19T05:05:09.638Z,50.14
2018-03-19T05:07:35.999Z,50.34
2018-03-19T05:10:02.384Z,50.17
2018-03-19T05:12:28.810Z,50.24
2018-03-19T05:14:55.178Z,50.32
2018-03-19T05:17:21.667Z,50.46
2018-03-19T05:19:48.045Z,50.52
2018-03-19T05:22:14.470Z,50.72
2018-03-19T05:24:40.897Z,50.79
2018-03-19T05:27:07.246Z,50.79
2018-03-19T05:29:33.580Z,50.55
2018-03-19T05:31:59.972Z,50.84
2018-03-19T05:34:26.366Z,50.56
2018-03-19T05:36:52.753Z,50.69
2018-03-19T05:39:20.040Z,50.56
2018-03-19T05:41:46.837Z,50.56
2018-03-19T05:44:13.171Z,50.76
2018-03-19T05:46:39.507Z,50.63
2018-03-19T05:49:06.090Z,50.84
2018-03-19T05:51:32.498Z,50.96
2018-03-19T05:53:59.203Z,51.29
2018-03-19T05:56:25.560Z,51.05
2018-03-19T05:58:52.387Z,51.11
2018-03-19T06:01:18.850Z,50.88
2018-03-19T06:03:45.271Z,51.16
2018-03-19T06:06:11.623Z,50.88
2018-03-19T06:08:37.995Z,50.61
2018-03-19T06:11:04.452Z,51.57
2018-03-19T06:13:30.858Z,51.28
2018-03-19T06:15:57.328Z,51.40
2018-03-19T06:18:23.679Z,50.95
2018-03-19T06:20:50.047Z,51.10
2018-03-19T06:23:16.479Z,51.17
2018-03-19T06:25:42.861Z,50.71
2018-03-19T06:28:09.258Z,50.85
2018-03-19T06:30:35.766Z,50.70
2018-03-19T06:33:02.154Z,50.98
2018-03-19T06:35:28.519Z,50.86
2018-03-19T06:37:55.308Z,50.84
2018-03-19T06:40:22.982Z,50.95
2018-03-19T06:42:49.348Z,50.78
2018-03-19T06:45:15.845Z,50.74
2018-03-19T06:47:42.224Z,50.43
2018-03-19T06:50:08.663Z,50.85
2018-03-19T06:52:35.700Z,50.61
2018-03-19T06:55:02.199Z,50.54
2018-03-19T06:57:28.537Z,50.62
2018-03-19T07:00:01.924Z,50.92
2018-03-19T07:02:28.707Z,50.68
2018-03-19T07:04:55.258Z,50.72
2018-03-19T07:07:21.621Z,50.84
2018-03-19T07:09:48.471Z,50.53
2018-03-19T07:12:15.410Z,50.48
2018-03-19T07:14:41.904Z,50.47
2018-03-19T07:17:08.278Z,49.95
2018-03-19T07:19:35.434Z,49.70
2018-03-19T07:22:02.170Z,49.77
2018-03-19T07:24:29.133Z,49.83
2018-03-19T07:26:55.925Z,49.69
2018-03-19T07:29:22.523Z,49.50
2018-03-19T07:31:49.358Z,49.17
2018-03-19T07:34:16.267Z,49.47
2018-03-19T07:36:42.770Z,49.52
2018-03-19T07:39:09.248Z,49.60
2018-03-19T07:41:35.752Z,49.70
2018-03-19T07:44:03.035Z,49.22
2018-03-19T07:46:32.025Z,49.02
2018-03-19T07:48:58.672Z,49.11
2018-03-19T07:51:25.481Z,48.72
2018-03-19T07:53:52.910Z,48.71
2018-03-19T07:56:19.847Z,48.55
2018-03-19T07:58:46.827Z,49.00
2018-03-19T08:01:13.969Z,49.20
2018-03-19T08:03:41.164Z,49.12
2018-03-19T08:06:07.842Z,48.44
2018-03-19T08:08:34.958Z,48.28
2018-03-19T08:11:01.952Z,48.41
2018-03-19T08:13:28.847Z,47.83
2018-03-19T08:15:55.850Z,48.41
2018-03-19T08:18:22.487Z,48.02
2018-03-19T08:20:49.382Z,47.38
2018-03-19T08:23:16.231Z,47.80
2018-03-19T08:25:43.362Z,48.05
2018-03-19T08:28:10.115Z,47.71
2018-03-19T08:30:36.879Z,47.86
2018-03-19T08:33:04.528Z,47.99
2018-03-19T08:35:31.635Z,47.63
2018-03-19T08:37:59.255Z,47.86
2018-03-19T08:40:27.333Z,47.45
2018-03-19T08:42:53.943Z,48.26
2018-03-19T08:45:20.879Z,47.52
2018-03-19T08:47:47.849Z,47.72
2018-03-19T08:50:14.394Z,47.60
2018-03-19T08:52:40.840Z,47.42
2018-03-19T08:55:07.243Z,47.32
2018-03-19T08:57:33.613Z,47.58
2018-03-19T09:00:00.047Z,47.28
2018-03-19T09:02:26.407Z,47.30
2018-03-19T09:04:52.794Z,47.66
2018-03-19T09:07:19.665Z,47.62
2018-03-19T09:09:46.232Z,47.84
2018-03-19T09:12:12.701Z,48.04
2018-03-19T09:14:40.010Z,47.97
2018-03-19T09:17:07.476Z,47.65
2018-03-19T09:19:33.913Z,47.77
2018-03-19T09:22:00.464Z,47.89
2018-03-19T09:24:28.122Z,48.12
2018-03-19T09:26:55.381Z,47.89
2018-03-19T09:29:24.289Z,48.03
2018-03-19T09:31:51.158Z,48.32
2018-03-19T09:34:17.732Z,48.05
2018-03-19T09:36:44.257Z,48.12
2018-03-19T09:39:10.651Z,48.37
2018-03-19T09:41:37.200Z,48.04
2018-03-19T09:44:04.286Z,48.05
2018-03-19T09:46:31.197Z,48.21
2018-03-19T09:48:57.876Z,48.16
2018-03-19T09:51:24.542Z,47.99
2018-03-19T09:53:51.679Z,47.81
2018-03-19T09:56:18.524Z,48.07
2018-03-19T09:58:45.483Z,48.02
2018-03-19T10:01:12.084Z,47.71
2018-03-19T10:03:38.516Z,47.73
2018-03-19T10:06:05.198Z,47.69
2018-03-19T10:08:31.999Z,47.52
2018-03-19T10:10:58.866Z,47.89
2018-03-19T10:13:25.719Z,47.41
2018-03-19T10:15:52.150Z,47.39
2018-03-19T10:18:18.705Z,47.36
2018-03-19T10:20:45.218Z,47.37
2018-03-19T10:23:12.043Z,47.21
2018-03-19T10:25:38.639Z,47.09
2018-03-19T10:28:05.673Z,47.38
2018-03-19T10:30:32.665Z,47.31
2018-03-19T10:32:59.728Z,47.47
2018-03-19T10:35:26.178Z,47.14
2018-03-19T10:37:53.339Z,47.22
2018-03-19T10:40:28.224Z,47.41
2018-03-19T10:42:55.173Z,47.28
2018-03-19T10:45:22.177Z,47.02
2018-03-19T10:47:49.009Z,47.03
2018-03-19T10:50:15.814Z,47.12
2018-03-19T10:52:42.526Z,47.15
2018-03-19T10:55:09.348Z,46.94
2018-03-19T10:57:36.737Z,46.87
2018-03-19T11:00:03.519Z,47.19
2018-03-19T11:02:30.782Z,47.36
2018-03-19T11:05:01.949Z,47.41
2018-03-19T11:07:29.581Z,47.00
2018-03-19T11:09:56.609Z,47.13
2018-03-19T11:12:23.764Z,47.25
2018-03-19T11:14:50.896Z,47.00
2018-03-19T11:17:17.584Z,47.04
2018-03-19T11:19:44.826Z,47.20
2018-03-19T11:22:11.516Z,47.09
2018-03-19T11:24:38.259Z,47.19
2018-03-19T11:27:05.064Z,47.27
2018-03-19T11:29:31.667Z,47.28
2018-03-19T11:31:58.137Z,47.28
2018-03-19T11:34:24.829Z,47.34
2018-03-19T11:36:51.802Z,47.43
2018-03-19T11:41:58.483Z,47.54
2018-03-19T11:44:25.323Z,47.30
2018-03-19T11:46:51.870Z,47.52
2018-03-19T11:49:18.724Z,47.63
2018-03-19T11:51:47.430Z,47.11
2018-03-19T11:54:14.578Z,47.43
2018-03-19T11:56:41.599Z,47.66
2018-03-19T12:07:05.123Z,47.67
2018-03-19T12:09:31.979Z,48.19
2018-03-19T12:11:58.401Z,47.75
2018-03-19T12:14:25.146Z,47.91
2018-03-19T12:16:51.877Z,47.93
2018-03-19T12:19:18.716Z,47.73
2018-03-19T12:21:45.340Z,47.90
2018-03-19T12:24:12.171Z,47.96
2018-03-19T12:26:38.825Z,47.98
2018-03-19T12:29:05.269Z,47.74
2018-03-19T12:31:31.788Z,47.80
2018-03-19T12:33:58.644Z,47.76
2018-03-19T12:36:25.213Z,47.94
2018-03-19T12:38:52.021Z,47.58
2018-03-19T12:41:18.674Z,47.67
2018-03-19T12:43:45.403Z,47.83
2018-03-19T12:46:12.080Z,47.79
2018-03-19T12:51:10.333Z,47.71
2018-03-19T12:53:37.218Z,47.78
2018-03-19T12:56:04.045Z,47.62
2018-03-19T12:58:31.061Z,47.34
2018-03-19T13:08:54.313Z,47.23
2018-03-19T13:11:21.333Z,47.07
2018-03-19T13:13:48.484Z,47.41
2018-03-19T13:16:15.122Z,47.37
2018-03-19T13:18:42.230Z,47.41
2018-03-19T13:21:09.121Z,46.93
2018-03-19T13:23:35.758Z,47.08
2018-03-19T13:26:02.722Z,47.22
2018-03-19T13:28:29.981Z,47.05
2018-03-19T13:30:57.086Z,47.18
2018-03-19T13:33:25.092Z,47.09
2018-03-19T13:35:53.902Z,47.18
2018-03-19T13:38:21.145Z,46.98
2018-03-19T13:40:48.195Z,46.86
2018-03-19T13:43:15.320Z,46.96
2018-03-19T13:45:42.020Z,47.06
2018-03-19T13:48:09.772Z,47.03
2018-03-19T13:50:36.469Z,47.03
2018-03-19T13:53:03.322Z,46.97
2018-03-19T13:55:29.823Z,47.09
2018-03-19T13:57:57.564Z,46.80
2018-03-19T14:03:04.528Z,46.98
2018-03-19T14:05:31.530Z,46.80
2018-03-19T14:07:58.115Z,46.97
2018-03-19T14:10:24.927Z,46.95
2018-03-19T14:12:51.400Z,47.02
2018-03-19T14:15:17.809Z,47.08
2018-03-19T14:17:44.342Z,46.96
2018-03-19T14:20:10.941Z,47.35
2018-03-19T14:22:37.314Z,47.27
2018-03-19T14:25:03.722Z,47.10
2018-03-19T14:27:30.132Z,47.12
2018-03-19T14:29:56.683Z,47.11
2018-03-19T14:32:23.440Z,47.13
2018-03-19T14:34:49.832Z,47.09
2018-03-19T14:37:16.265Z,47.34
2018-03-19T14:39:42.693Z,47.13
2018-03-19T14:42:09.206Z,47.16
2018-03-19T14:44:36.441Z,47.03
2018-03-19T14:47:03.124Z,46.75
2018-03-19T14:49:29.724Z,47.15
2018-03-19T14:51:56.083Z,46.94
2018-03-19T14:54:22.452Z,47.15
2018-03-19T14:56:49.073Z,46.91
2018-03-19T14:59:15.457Z,46.75
2018-03-19T15:01:41.949Z,46.80
2018-03-19T15:04:08.295Z,46.61
2018-03-19T15:06:34.739Z,46.64
2018-03-19T15:09:01.082Z,46.62
2018-03-19T15:11:27.439Z,46.99
2018-03-19T15:13:53.847Z,46.77
2018-03-19T15:16:20.201Z,46.44
2018-03-19T15:18:46.818Z,46.89
2018-03-19T15:21:13.173Z,46.56
2018-03-19T15:23:39.606Z,46.26
2018-03-19T15:26:05.957Z,46.63
2018-03-19T15:28:32.313Z,46.35
2018-03-19T15:30:58.818Z,46.47
2018-03-19T15:33:25.297Z,46.64
2018-03-19T15:35:51.770Z,46.76
2018-03-19T15:38:18.118Z,46.61
2018-03-19T15:40:44.834Z,46.83
2018-03-19T15:43:11.192Z,46.52
2018-03-19T15:45:37.585Z,46.31
2018-03-19T15:48:03.979Z,46.74
2018-03-19T15:50:30.325Z,46.70
2018-03-19T15:52:56.807Z,46.64
2018-03-19T15:55:23.196Z,46.39
2018-03-19T15:57:49.578Z,46.38
2018-03-19T16:00:15.993Z,46.28
2018-03-19T16:02:42.427Z,46.37
2018-03-19T16:05:08.798Z,46.60
2018-03-19T16:07:35.185Z,46.54
2018-03-19T16:10:01.563Z,46.37
2018-03-19T16:12:27.988Z,46.25
2018-03-19T16:14:54.576Z,46.46
2018-03-19T16:17:21.038Z,46.50
2018-03-19T16:19:47.449Z,46.33
2018-03-19T16:22:13.838Z,46.37
2018-03-19T16:24:40.182Z,46.28
2018-03-19T16:27:06.525Z,46.30
2018-03-19T16:29:32.937Z,46.15
2018-03-19T16:31:59.306Z,46.21
2018-03-19T16:34:25.673Z,46.01
2018-03-19T16:36:52.008Z,46.07
2018-03-19T16:39:18.386Z,46.04
2018-03-19T16:41:44.757Z,45.97
2018-03-19T16:44:11.102Z,45.85
2018-03-19T16:46:37.506Z,45.93
2018-03-19T16:49:03.918Z,45.86
2018-03-19T16:51:30.320Z,46.03
2018-03-19T16:53:56.800Z,46.06
2018-03-19T16:56:23.305Z,46.17
2018-03-19T16:58:49.634Z,46.13
2018-03-19T17:01:16.009Z,46.03
2018-03-19T17:03:42.405Z,45.88
2018-03-19T17:06:08.788Z,46.16
2018-03-19T17:08:35.119Z,46.19
2018-03-19T17:11:01.453Z,46.41
2018-03-19T17:13:27.844Z,46.26
2018-03-19T17:15:54.194Z,46.20
2018-03-19T17:18:20.604Z,46.34
2018-03-19T17:20:46.955Z,46.41
2018-03-19T17:23:13.330Z,46.44
2018-03-19T17:25:39.661Z,46.42
2018-03-19T17:28:06.006Z,46.34
2018-03-19T17:30:32.459Z,46.45
2018-03-19T17:32:58.842Z,46.38
2018-03-19T17:35:25.215Z,46.47
2018-03-19T17:37:51.549Z,46.17
2018-03-19T17:40:17.995Z,46.35
2018-03-19T17:42:44.346Z,45.95
2018-03-19T17:45:10.708Z,46.02
2018-03-19T17:47:37.097Z,46.34
2018-03-19T17:50:03.430Z,46.10
2018-03-19T17:52:29.760Z,46.23
2018-03-19T17:54:56.145Z,46.26
2018-03-19T17:57:22.542Z,46.41
2018-03-19T17:59:48.879Z,46.38
2018-03-19T18:02:15.235Z,46.51
2018-03-19T18:04:41.591Z,46.48
2018-03-19T18:07:07.976Z,46.15
2018-03-19T18:09:34.292Z,46.02
2018-03-19T18:12:00.629Z,45.73
2018-03-19T18:14:26.985Z,45.58
2018-03-19T18:16:53.339Z,45.25
2018-03-19T18:19:19.743Z,44.93
2018-03-19T18:21:46.072Z,44.77
2018-03-19T18:24:12.463Z,44.60
2018-03-19T18:26:38.786Z,44.28
2018-03-19T18:29:05.147Z,44.04
2018-03-19T18:31:31.483Z,43.97
2018-03-19T18:33:57.863Z,43.86
2018-03-19T18:36:24.234Z,43.59
2018-03-19T18:38:50.601Z,43.42
2018-03-19T18:41:17.192Z,43.27
2018-03-19T18:43:43.650Z,43.02
2018-03-19T18:46:10.015Z,42.90
2018-03-19T18:48:36.341Z,42.81
2018-03-19T18:51:02.778Z,42.59
2018-03-19T18:53:29.204Z,42.42
2018-03-19T18:55:55.532Z,42.31
2018-03-19T18:58:22.101Z,42.19
2018-03-19T19:00:48.485Z,41.99
2018-03-19T19:03:14.891Z,41.92
2018-03-19T19:05:41.221Z,41.74
2018-03-19T19:08:07.605Z,41.65
2018-03-19T19:10:33.998Z,41.58
2018-03-19T19:13:00.379Z,41.39
2018-03-19T19:15:26.720Z,41.38
2018-03-19T19:17:53.042Z,41.23
2018-03-19T19:20:19.390Z,41.10
2018-03-19T19:22:45.726Z,40.80
2018-03-19T19:25:12.089Z,40.66
2018-03-19T19:27:38.413Z,40.71
2018-03-19T19:30:04.765Z,40.27
2018-03-19T19:32:31.088Z,40.31
2018-03-19T19:34:57.493Z,39.70
2018-03-19T19:37:23.914Z,40.20
2018-03-19T19:39:50.282Z,40.26
2018-03-19T19:42:16.603Z,40.01
2018-03-19T19:44:42.950Z,40.10
2018-03-19T19:47:09.310Z,39.75
2018-03-19T19:49:35.687Z,39.72
2018-03-19T19:52:02.019Z,39.78
2018-03-19T19:54:28.435Z,40.18
2018-03-19T19:56:54.770Z,39.98
2018-03-19T19:59:21.137Z,39.88
2018-03-19T20:01:47.461Z,39.72
2018-03-19T20:04:13.940Z,39.39
2018-03-19T20:06:40.266Z,39.56
2018-03-19T20:09:06.652Z,39.56
2018-03-19T20:11:32.980Z,39.75
2018-03-19T20:13:59.342Z,39.38
2018-03-19T20:16:25.682Z,39.43
2018-03-19T20:18:52.093Z,39.01
2018-03-19T20:21:18.459Z,39.23
2018-03-19T20:23:44.826Z,39.39
2018-03-19T20:26:11.200Z,39.10
2018-03-19T20:28:37.529Z,39.31
2018-03-19T20:31:03.856Z,39.14
2018-03-19T20:33:30.197Z,39.10
2018-03-19T20:35:56.560Z,38.85
2018-03-19T20:38:23.026Z,38.86
2018-03-19T20:40:49.380Z,38.98
2018-03-19T20:43:15.712Z,39.02
2018-03-19T20:45:42.140Z,39.18
2018-03-19T20:48:08.465Z,39.36
2018-03-19T20:50:34.831Z,39.11
2018-03-19T20:53:01.192Z,39.07
2018-03-19T20:55:27.509Z,39.43
2018-03-19T20:57:53.891Z,39.45
2018-03-19T21:00:20.274Z,39.53
2018-03-19T21:02:46.606Z,39.66
2018-03-19T21:05:13.050Z,39.76
2018-03-19T21:07:39.450Z,39.81
2018-03-19T21:10:05.785Z,39.72
2018-03-19T21:12:32.158Z,39.78
2018-03-19T21:14:58.502Z,39.92
2018-03-19T21:17:24.987Z,40.23
2018-03-19T21:19:51.364Z,40.31
2018-03-19T21:22:17.872Z,40.19
2018-03-19T21:24:44.201Z,40.65
2018-03-19T21:27:10.537Z,40.65
2018-03-19T21:29:36.883Z,40.86
2018-03-19T21:32:03.218Z,40.81
2018-03-19T21:34:29.542Z,40.89
2018-03-19T21:36:55.875Z,41.05
2018-03-19T21:39:22.270Z,41.00
2018-03-19T21:41:48.623Z,41.12
2018-03-19T21:44:14.965Z,41.29
2018-03-19T21:46:41.349Z,41.34
2018-03-19T21:49:07.714Z,41.41
2018-03-19T21:51:34.046Z,41.29
2018-03-19T21:54:00.441Z,41.36
2018-03-19T21:56:26.909Z,41.52
2018-03-19T21:58:53.169Z,41.54
2018-03-19T22:01:19.630Z,41.63
2018-03-19T22:03:45.958Z,41.69
2018-03-19T22:06:12.290Z,41.76
2018-03-19T22:08:38.674Z,41.74
2018-03-19T22:11:05.071Z,41.70
2018-03-19T22:13:31.438Z,41.97
2018-03-19T22:15:57.811Z,41.84
2018-03-19T22:18:24.173Z,41.85
2018-03-19T22:20:50.513Z,41.93
2018-03-19T22:23:16.883Z,42.03
2018-03-19T22:25:43.221Z,42.07
2018-03-19T22:28:09.546Z,42.22
2018-03-19T22:30:35.888Z,42.21
2018-03-19T22:33:02.245Z,42.12
2018-03-19T22:35:28.574Z,42.07
2018-03-19T22:37:54.948Z,42.17
2018-03-19T22:40:21.344Z,42.36
2018-03-19T22:42:47.730Z,42.27
2018-03-19T22:45:14.064Z,42.26
2018-03-19T22:47:40.434Z,42.22
2018-03-19T22:50:06.764Z,42.29
2018-03-19T22:52:33.174Z,42.49
2018-03-19T22:54:59.509Z,42.57
2018-03-19T22:57:25.841Z,42.41
2018-03-19T22:59:52.191Z,42.45
2018-03-19T23:02:18.534Z,42.51
2018-03-19T23:04:44.922Z,42.61
2018-03-19T23:07:11.250Z,42.87
2018-03-19T23:09:37.577Z,42.80
2018-03-19T23:12:03.946Z,42.89
2018-03-19T23:14:30.272Z,42.99
2018-03-19T23:16:56.602Z,43.00
2018-03-19T23:19:22.944Z,43.12
2018-03-19T23:21:49.304Z,43.22
2018-03-19T23:24:15.738Z,42.97
2018-03-19T23:26:42.297Z,43.26
2018-03-19T23:29:08.667Z,43.17
2018-03-19T23:31:35.006Z,43.35
2018-03-19T23:34:01.385Z,43.45
2018-03-19T23:36:27.718Z,43.48
2018-03-19T23:38:54.123Z,43.59
2018-03-19T23:41:20.553Z,43.61
2018-03-19T23:43:46.940Z,43.59
2018-03-19T23:46:13.262Z,43.80
2018-03-19T23:48:39.715Z,43.70
2018-03-19T23:51:06.056Z,43.91
2018-03-19T23:53:32.446Z,43.92
2018-03-19T23:55:58.809Z,44.08
2018-03-19T23:58:25.162Z,44.10
